createdAt,value
2019-04-03T00:00:35.855Z,24.02
2019-04-03T00:03:07.205Z,30.75
2019-04-03T00:05:38.495Z,32.58
2019-04-03T00:08:10.267Z,32.85
2019-04-03T00:10:41.625Z,29.05
2019-04-03T00:13:13.068Z,26.50
2019-04-03T00:15:44.798Z,25.57
2019-04-03T00:18:16.842Z,25.52
2019-04-03T00:20:49.211Z,18.95
2019-04-03T00:23:22.357Z,25.23
2019-04-03T00:25:54.251Z,16.93
2019-04-03T00:28:25.646Z,18.10
2019-04-03T00:30:57.115Z,16.87
2019-04-03T00:33:28.509Z,14.80
2019-04-03T00:36:00.021Z,13.62
2019-04-03T00:38:31.576Z,12.93
2019-04-03T00:41:02.983Z,14.07
2019-04-03T00:43:34.433Z,17.15
2019-04-03T00:46:06.240Z,15.28
2019-04-03T00:48:37.638Z,12.95
2019-04-03T00:51:09.167Z,15.30
2019-04-03T00:53:40.677Z,12.05
2019-04-03T00:56:12.161Z,12.33
2019-04-03T00:58:44.644Z,16.37
2019-04-03T01:01:16.176Z,14.78
2019-04-03T01:03:47.622Z,13.88
2019-04-03T01:06:19.374Z,14.98
2019-04-03T01:08:50.843Z,15.25
2019-04-03T01:11:22.451Z,13.50
2019-04-03T01:13:54.040Z,13.90
2019-04-03T01:16:25.480Z,12.73
2019-04-03T01:18:56.942Z,12.68
2019-04-03T01:21:28.380Z,13.90
2019-04-03T01:23:59.845Z,16.15
2019-04-03T01:26:31.507Z,17.95
2019-04-03T01:29:03.162Z,14.33
2019-04-03T01:31:34.637Z,13.62
2019-04-03T01:34:06.064Z,12.18
2019-04-03T01:36:37.524Z,9.60
2019-04-03T01:39:09.080Z,7.60
2019-04-03T01:41:40.632Z,10.18
2019-04-03T01:44:13.338Z,9.70
2019-04-03T01:46:44.731Z,7.85
2019-04-03T01:49:16.016Z,8.10
2019-04-03T01:51:47.533Z,11.63
2019-04-03T01:54:19.081Z,6.50
2019-04-03T01:56:50.530Z,8.83
2019-04-03T01:59:22.103Z,7.17
2019-04-03T02:01:53.572Z,6.33
2019-04-03T02:04:25.038Z,7.85
2019-04-03T02:06:57.815Z,6.15
2019-04-03T02:09:29.354Z,8.93
2019-04-03T02:12:00.986Z,7.90
2019-04-03T02:14:32.412Z,6.80
2019-04-03T02:17:03.726Z,9.33
2019-04-03T02:19:35.038Z,15.13
2019-04-03T02:22:06.429Z,8.70
2019-04-03T02:24:38.013Z,8.50
2019-04-03T02:27:09.521Z,8.63
2019-04-03T02:29:41.097Z,7.67
2019-04-03T02:32:12.683Z,8.33
2019-04-03T02:34:44.486Z,10.95
2019-04-03T02:37:16.829Z,9.88
2019-04-03T02:39:49.124Z,7.08
2019-04-03T02:42:20.696Z,10.08
2019-04-03T02:44:52.345Z,11.70
2019-04-03T02:47:24.125Z,8.03
2019-04-03T02:49:55.829Z,5.85
2019-04-03T02:52:28.138Z,11.57
2019-04-03T02:55:00.840Z,7.92
2019-04-03T02:57:32.200Z,8.68
2019-04-03T03:00:03.699Z,6.85
2019-04-03T03:02:35.365Z,7.75
2019-04-03T03:05:07.212Z,12.58
2019-04-03T03:07:38.835Z,8.20
2019-04-03T03:10:10.338Z,8.55
2019-04-03T03:12:42.501Z,7.50
2019-04-03T03:15:14.065Z,14.78
2019-04-03T03:17:46.213Z,8.63
2019-04-03T03:20:22.238Z,10.60
2019-04-03T03:22:55.472Z,8.88
2019-04-03T03:25:27.481Z,11.00
2019-04-03T03:27:59.450Z,8.00
2019-04-03T03:30:41.215Z,8.55
2019-04-03T03:33:24.238Z,10.45
2019-04-03T03:35:43.632Z,7.65
2019-04-03T03:38:12.643Z,8.80
2019-04-03T03:40:47.317Z,5.30
2019-04-03T03:43:18.738Z,6.72
2019-04-03T03:45:52.521Z,9.63
2019-04-03T03:48:25.592Z,9.43
2019-04-03T03:50:58.598Z,11.70
2019-04-03T03:53:32.375Z,9.18
2019-04-03T03:56:04.615Z,9.15
2019-04-03T03:58:37.781Z,8.63
2019-04-03T04:01:09.799Z,8.78
2019-04-03T04:03:42.337Z,8.30
2019-04-03T04:06:14.828Z,5.95
2019-04-03T04:08:46.418Z,7.37
2019-04-03T04:11:18.104Z,7.35
2019-04-03T04:13:50.428Z,9.85
2019-04-03T04:16:22.190Z,9.53
2019-04-03T04:18:57.000Z,9.63
2019-04-03T04:21:27.349Z,9.10
2019-04-03T04:23:59.984Z,10.03
2019-04-03T04:26:32.366Z,9.50
2019-04-03T04:29:04.060Z,7.28
2019-04-03T04:31:35.289Z,8.60
2019-04-03T04:34:06.950Z,9.08
2019-04-03T04:36:38.301Z,9.95
2019-04-03T04:39:10.067Z,8.58
2019-04-03T04:41:41.453Z,7.75
2019-04-03T04:44:14.832Z,9.75
2019-04-03T04:46:46.085Z,9.63
2019-04-03T04:49:17.381Z,12.15
2019-04-03T04:51:49.280Z,11.75
2019-04-03T04:54:20.656Z,9.10
2019-04-03T04:56:52.217Z,7.72
2019-04-03T04:59:23.802Z,12.47
2019-04-03T05:01:55.261Z,9.18
2019-04-03T05:04:26.832Z,9.60
2019-04-03T05:07:00.147Z,11.20
2019-04-03T05:09:34.353Z,6.85
2019-04-03T05:12:04.889Z,9.08
2019-04-03T05:14:36.703Z,14.13
2019-04-03T05:17:09.442Z,8.48
2019-04-03T05:19:41.030Z,9.10
2019-04-03T05:22:12.605Z,8.70
2019-04-03T05:24:44.221Z,9.35
2019-04-03T05:27:15.850Z,9.33
2019-04-03T05:29:47.445Z,9.85
2019-04-03T05:32:19.027Z,11.03
2019-04-03T05:34:50.563Z,13.40
2019-04-03T05:37:21.989Z,11.70
2019-04-03T05:39:55.674Z,13.75
2019-04-03T05:42:28.451Z,10.48
2019-04-03T05:45:00.071Z,12.63
2019-04-03T05:47:31.651Z,10.85
2019-04-03T05:50:03.014Z,10.05
2019-04-03T05:52:35.129Z,8.60
2019-04-03T05:55:08.042Z,9.88
2019-04-03T05:57:40.725Z,8.55
2019-04-03T06:00:12.244Z,9.68
2019-04-03T06:02:44.172Z,13.05
2019-04-03T06:05:18.634Z,11.78
2019-04-03T06:07:49.757Z,8.63
2019-04-03T06:10:21.498Z,13.03
2019-04-03T06:12:52.843Z,9.60
2019-04-03T06:15:24.405Z,9.08
2019-04-03T06:17:55.883Z,7.95
2019-04-03T06:20:27.443Z,12.43
2019-04-03T06:22:58.827Z,9.18
2019-04-03T06:25:32.701Z,9.25
2019-04-03T06:28:03.881Z,10.00
2019-04-03T06:30:35.416Z,8.78
2019-04-03T06:33:07.248Z,8.50
2019-04-03T06:35:38.887Z,11.25
2019-04-03T06:38:12.402Z,9.63
2019-04-03T06:40:43.995Z,9.95
2019-04-03T06:43:17.157Z,8.38
2019-04-03T06:45:48.820Z,9.28
2019-04-03T06:48:20.675Z,8.38
2019-04-03T06:50:52.489Z,8.45
2019-04-03T06:53:27.295Z,8.73
2019-04-03T06:55:57.081Z,12.55
2019-04-03T06:58:37.328Z,9.73
2019-04-03T07:01:02.055Z,11.53
2019-04-03T07:03:35.072Z,13.28
2019-04-03T07:06:06.653Z,8.10
2019-04-03T07:08:40.932Z,9.23
2019-04-03T07:11:22.783Z,8.18
2019-04-03T07:13:44.923Z,8.10
2019-04-03T07:16:16.700Z,6.85
2019-04-03T07:18:48.069Z,7.80
2019-04-03T07:21:22.133Z,8.78
2019-04-03T07:23:53.010Z,10.45
2019-04-03T07:26:24.651Z,11.63
2019-04-03T07:28:56.721Z,7.50
2019-04-03T07:31:28.509Z,15.38
2019-04-03T07:34:01.825Z,15.32
2019-04-03T07:36:33.254Z,10.58
2019-04-03T07:39:06.607Z,7.42
2019-04-03T07:41:41.197Z,10.32
2019-04-03T07:44:11.775Z,9.88
2019-04-03T07:46:43.649Z,7.80
2019-04-03T07:49:15.326Z,11.78
2019-04-03T07:51:47.108Z,13.22
2019-04-03T07:54:20.162Z,7.45
2019-04-03T07:56:52.123Z,10.15
2019-04-03T07:59:24.082Z,12.25
2019-04-03T08:01:55.526Z,12.77
2019-04-03T08:04:27.160Z,7.60
2019-04-03T08:06:59.076Z,7.28
2019-04-03T08:09:30.645Z,11.33
2019-04-03T08:12:04.186Z,11.17
2019-04-03T08:14:35.315Z,12.00
2019-04-03T08:17:06.591Z,9.50
2019-04-03T08:19:37.579Z,10.57
2019-04-03T08:22:09.385Z,15.65
2019-04-03T08:24:40.820Z,10.17
2019-04-03T08:27:11.922Z,10.27
2019-04-03T08:29:42.827Z,9.20
2019-04-03T08:32:16.246Z,7.13
2019-04-03T08:34:46.998Z,8.93
2019-04-03T08:37:28.388Z,10.63
2019-04-03T08:39:51.085Z,10.57
2019-04-03T08:42:22.323Z,9.00
2019-04-03T08:44:53.601Z,9.03
2019-04-03T08:47:24.811Z,8.07
2019-04-03T08:49:57.214Z,6.40
2019-04-03T08:52:29.034Z,13.03
2019-04-03T08:55:00.558Z,8.90
2019-04-03T08:57:32.618Z,6.33
2019-04-03T09:00:04.295Z,6.97
2019-04-03T09:02:35.683Z,5.03
2019-04-03T09:05:08.283Z,9.23
2019-04-03T09:07:39.574Z,13.33
2019-04-03T09:10:11.106Z,13.13
2019-04-03T09:12:42.315Z,9.23
2019-04-03T09:15:13.583Z,8.40
2019-04-03T09:17:44.907Z,9.47
2019-04-03T09:20:16.511Z,9.97
2019-04-03T09:22:48.105Z,10.30
2019-04-03T09:25:19.363Z,12.50
2019-04-03T09:27:50.767Z,7.97
2019-04-03T09:30:23.816Z,10.20
2019-04-03T09:32:54.712Z,12.50
2019-04-03T09:35:25.827Z,8.13
2019-04-03T09:37:57.085Z,12.83
2019-04-03T09:40:28.234Z,10.87
2019-04-03T09:42:59.197Z,10.57
2019-04-03T09:45:30.470Z,11.33
2019-04-03T09:48:03.215Z,8.47
2019-04-03T09:50:35.027Z,10.33
2019-04-03T09:53:06.751Z,11.43
2019-04-03T09:55:38.293Z,12.13
2019-04-03T09:58:09.720Z,12.00
2019-04-03T10:00:41.985Z,11.33
2019-04-03T10:03:14.086Z,9.03
2019-04-03T10:05:46.484Z,7.97
2019-04-03T10:08:17.434Z,7.47
2019-04-03T10:10:48.471Z,10.67
2019-04-03T10:13:19.950Z,10.57
2019-04-03T10:15:51.179Z,7.23
2019-04-03T10:18:22.622Z,12.57
2019-04-03T10:20:54.192Z,9.87
2019-04-03T10:23:28.191Z,10.20
2019-04-03T10:25:59.089Z,12.20
2019-04-03T10:28:31.295Z,11.83
2019-04-03T10:31:03.168Z,7.50
2019-04-03T10:33:34.866Z,9.07
2019-04-03T10:36:06.430Z,9.27
2019-04-03T10:38:37.673Z,10.70
2019-04-03T10:41:10.983Z,13.80
2019-04-03T10:43:42.152Z,9.40
2019-04-03T10:46:13.351Z,8.47
2019-04-03T10:48:44.764Z,8.77
2019-04-03T10:51:16.228Z,10.03
2019-04-03T10:53:48.927Z,8.63
2019-04-03T10:56:20.494Z,8.93
2019-04-03T10:58:51.724Z,8.23
2019-04-03T11:01:23.362Z,11.73
2019-04-03T11:03:54.656Z,11.70
2019-04-03T11:06:25.826Z,8.43
2019-04-03T11:08:57.052Z,9.40
2019-04-03T11:11:29.660Z,10.53
2019-04-03T11:14:03.003Z,12.63
2019-04-03T11:16:34.380Z,9.47
2019-04-03T11:19:07.265Z,8.70
2019-04-03T11:21:38.708Z,10.47
2019-04-03T11:24:10.206Z,10.63
2019-04-03T11:26:41.338Z,13.00
2019-04-03T11:29:12.797Z,16.03
2019-04-03T11:31:44.184Z,8.30
2019-04-03T11:34:18.320Z,12.83
2019-04-03T11:37:08.499Z,11.67
2019-04-03T11:39:41.964Z,11.47
2019-04-03T11:42:27.169Z,10.00
2019-04-03T11:45:11.615Z,11.67
2019-04-03T11:48:26.411Z,14.40
2019-04-03T11:50:39.448Z,6.97
2019-04-03T11:56:40.267Z,9.33
2019-04-03T11:59:40.258Z,8.93
2019-04-03T12:02:58.788Z,14.93
2019-04-03T12:06:11.181Z,8.07
2019-04-03T12:08:45.699Z,9.57
2019-04-03T12:11:17.696Z,8.43
2019-04-03T12:13:49.402Z,9.97
2019-04-03T12:16:24.033Z,7.60
2019-04-03T12:18:53.878Z,9.43
2019-04-03T12:21:25.411Z,12.57
2019-04-03T12:23:58.148Z,8.83
2019-04-03T12:26:29.896Z,6.57
2019-04-03T12:29:00.999Z,7.70
2019-04-03T12:31:32.552Z,9.37
2019-04-03T12:34:06.423Z,8.97
2019-04-03T12:36:37.163Z,11.93
2019-04-03T12:39:16.051Z,9.87
2019-04-03T12:41:47.172Z,9.97
2019-04-03T12:44:20.751Z,10.27
2019-04-03T12:46:51.663Z,14.00
2019-04-03T12:49:24.224Z,10.43
2019-04-03T12:51:55.695Z,9.40
2019-04-03T12:54:27.148Z,10.90
2019-04-03T12:57:00.293Z,12.13
2019-04-03T12:59:31.719Z,11.70
2019-04-03T13:02:03.781Z,10.10
2019-04-03T13:04:35.016Z,9.93
2019-04-03T13:07:06.733Z,12.17
2019-04-03T13:09:38.724Z,9.43
2019-04-03T13:12:10.721Z,9.47
2019-04-03T13:14:42.935Z,8.73
2019-04-03T13:17:14.786Z,11.67
2019-04-03T13:19:46.675Z,15.17
2019-04-03T13:22:18.846Z,10.97
2019-04-03T13:24:49.999Z,10.77
2019-04-03T13:27:21.372Z,12.93
2019-04-03T13:29:52.681Z,8.53
2019-04-03T13:32:24.787Z,10.53
2019-04-03T13:34:56.203Z,11.77
2019-04-03T13:37:27.660Z,10.30
2019-04-03T13:40:00.520Z,11.30
2019-04-03T13:42:32.281Z,16.63
2019-04-03T13:45:04.903Z,12.17
2019-04-03T13:47:35.988Z,16.37
2019-04-03T13:50:07.803Z,10.00
2019-04-03T13:52:43.065Z,6.90
2019-04-03T13:55:12.246Z,15.90
2019-04-03T13:57:43.859Z,11.03
2019-04-03T14:00:20.982Z,10.13
2019-04-03T14:02:48.853Z,10.80
2019-04-03T14:05:20.296Z,12.00
2019-04-03T14:07:51.498Z,6.97
2019-04-03T14:10:24.525Z,10.83
2019-04-03T14:12:55.791Z,8.97
2019-04-03T14:15:26.996Z,15.73
2019-04-03T14:17:59.627Z,13.87
2019-04-03T14:20:31.151Z,12.60
2019-04-03T14:23:03.901Z,13.07
2019-04-03T14:25:38.454Z,11.50
2019-04-03T14:28:09.697Z,16.67
2019-04-03T14:30:43.637Z,14.77
2019-04-03T14:33:14.564Z,13.03
2019-04-03T14:35:52.324Z,14.30
2019-04-03T14:38:19.084Z,14.13
2019-04-03T14:40:50.562Z,11.93
2019-04-03T14:43:22.384Z,11.37
2019-04-03T14:45:53.965Z,15.47
2019-04-03T14:48:26.312Z,12.23
2019-04-03T14:50:58.692Z,11.73
2019-04-03T14:53:30.154Z,9.03
2019-04-03T14:56:02.043Z,14.30
2019-04-03T14:58:33.119Z,9.37
2019-04-03T15:01:04.409Z,13.97
2019-04-03T15:03:35.607Z,12.20
2019-04-03T15:06:06.947Z,11.07
2019-04-03T15:08:38.339Z,10.67
2019-04-03T15:11:10.002Z,12.97
2019-04-03T15:13:41.295Z,11.67
2019-04-03T15:16:13.058Z,11.83
2019-04-03T15:18:44.735Z,12.37
2019-04-03T15:21:15.839Z,12.50
2019-04-03T15:23:47.488Z,12.77
2019-04-03T15:26:21.830Z,10.23
2019-04-03T15:28:56.829Z,13.47
2019-04-03T15:31:28.874Z,12.77
2019-04-03T15:34:00.496Z,12.20
2019-04-03T15:36:34.917Z,14.60
2019-04-03T15:39:07.572Z,10.23
2019-04-03T15:41:39.211Z,8.93
2019-04-03T15:44:10.543Z,9.57
2019-04-03T15:46:41.791Z,12.73
2019-04-03T15:49:13.276Z,12.30
2019-04-03T15:51:44.726Z,12.10
2019-04-03T15:54:16.229Z,10.63
2019-04-03T15:56:47.530Z,13.87
2019-04-03T15:59:18.639Z,15.07
2019-04-03T16:01:50.145Z,11.73
2019-04-03T16:04:21.707Z,11.23
2019-04-03T16:06:53.331Z,12.03
2019-04-03T16:09:24.733Z,18.10
2019-04-03T16:11:56.208Z,12.33
2019-04-03T16:14:28.545Z,12.23
2019-04-03T16:17:02.943Z,15.93
2019-04-03T16:19:35.223Z,12.77
2019-04-03T16:22:07.005Z,11.50
2019-04-03T16:24:38.297Z,11.40
2019-04-03T16:27:09.444Z,13.73
2019-04-03T16:29:41.328Z,15.43
2019-04-03T16:32:12.945Z,12.43
2019-04-03T16:34:44.246Z,12.67
2019-04-03T16:37:15.680Z,16.00
2019-04-03T16:39:47.347Z,11.07
2019-04-03T16:42:19.091Z,17.17
2019-04-03T16:44:50.722Z,13.07
2019-04-03T16:47:22.029Z,12.33
2019-04-03T16:49:54.867Z,14.27
2019-04-03T16:52:26.669Z,12.57
2019-04-03T16:54:58.408Z,15.50
2019-04-03T16:57:29.790Z,15.40
2019-04-03T17:00:00.960Z,14.30
2019-04-03T17:02:32.235Z,14.93
2019-04-03T17:05:03.502Z,14.30
2019-04-03T17:07:37.447Z,15.53
2019-04-03T17:10:09.994Z,14.13
2019-04-03T17:12:41.390Z,14.17
2019-04-03T17:15:13.034Z,19.20
2019-04-03T17:17:46.217Z,16.63
2019-04-03T17:20:20.334Z,13.13
2019-04-03T17:22:51.467Z,17.30
2019-04-03T17:25:23.255Z,13.13
2019-04-03T17:27:57.810Z,12.57
2019-04-03T17:30:27.558Z,14.03
2019-04-03T17:33:00.399Z,12.47
2019-04-03T17:35:31.606Z,12.27
2019-04-03T17:38:03.161Z,14.30
2019-04-03T17:40:36.378Z,20.37
2019-04-03T17:43:07.523Z,13.83
2019-04-03T17:45:46.506Z,14.77
2019-04-03T17:48:19.537Z,17.73
2019-04-03T17:50:51.110Z,19.62
2019-04-03T17:53:22.265Z,12.37
2019-04-03T17:55:53.907Z,18.45
2019-04-03T17:58:25.604Z,15.00
2019-04-03T18:00:57.074Z,13.50
2019-04-03T18:03:28.367Z,15.13
2019-04-03T18:05:59.537Z,13.33
2019-04-03T18:08:32.593Z,11.73
2019-04-03T18:11:28.536Z,18.60
2019-04-03T18:14:01.502Z,18.55
2019-04-03T18:16:32.920Z,15.53
2019-04-03T18:19:05.415Z,15.20
2019-04-03T18:21:37.041Z,17.15
2019-04-03T18:24:08.632Z,15.20
2019-04-03T18:26:40.135Z,17.92
2019-04-03T18:29:11.680Z,20.57
2019-04-03T18:31:44.703Z,18.57
2019-04-03T18:34:16.291Z,14.95
2019-04-03T18:36:48.182Z,19.48
2019-04-03T18:39:19.700Z,17.35
2019-04-03T18:41:51.335Z,17.82
2019-04-03T18:44:26.056Z,18.32
2019-04-03T18:46:56.474Z,15.68
2019-04-03T18:49:28.107Z,16.12
2019-04-03T18:51:59.872Z,18.82
2019-04-03T18:54:31.456Z,18.30
2019-04-03T18:57:02.936Z,13.62
2019-04-03T18:59:34.479Z,17.20
2019-04-03T19:02:06.226Z,12.47
2019-04-03T19:04:38.303Z,15.53
2019-04-03T19:07:09.852Z,16.60
2019-04-03T19:09:41.297Z,9.65
2019-04-03T19:12:13.504Z,10.70
2019-04-03T19:14:44.920Z,12.40
2019-04-03T19:17:16.590Z,20.32
2019-04-03T19:19:48.264Z,15.30
2019-04-03T19:22:19.671Z,12.53
2019-04-03T19:24:51.496Z,11.48
2019-04-03T19:27:22.945Z,14.43
2019-04-03T19:29:54.687Z,15.88
2019-04-03T19:32:26.121Z,12.55
2019-04-03T19:34:57.737Z,15.83
2019-04-03T19:37:29.281Z,15.35
2019-04-03T19:40:01.555Z,12.43
2019-04-03T19:42:34.866Z,15.40
2019-04-03T19:45:07.519Z,15.55
2019-04-03T19:47:39.243Z,17.23
2019-04-03T19:50:10.992Z,12.75
2019-04-03T19:52:42.743Z,14.25
2019-04-03T19:55:14.341Z,11.43
2019-04-03T19:57:45.794Z,13.00
2019-04-03T20:00:17.401Z,12.00
2019-04-03T20:02:48.931Z,13.80
2019-04-03T20:05:20.314Z,14.53
2019-04-03T20:07:51.891Z,12.05
2019-04-03T20:10:23.322Z,16.65
2019-04-03T20:12:54.869Z,13.25
2019-04-03T20:15:26.074Z,14.68
2019-04-03T20:17:57.478Z,13.58
2019-04-03T20:20:31.464Z,12.20
2019-04-03T20:23:02.438Z,16.27
2019-04-03T20:25:33.968Z,9.03
2019-04-03T20:28:05.714Z,11.80
2019-04-03T20:30:37.551Z,14.98
2019-04-03T20:33:11.425Z,14.25
2019-04-03T20:35:42.583Z,12.88
2019-04-03T20:38:14.353Z,11.43
2019-04-03T20:40:45.930Z,13.38
2019-04-03T20:43:17.353Z,15.05
2019-04-03T20:45:49.773Z,13.98
2019-04-03T20:48:21.895Z,13.88
2019-04-03T20:50:53.514Z,15.40
2019-04-03T20:53:25.112Z,12.47
2019-04-03T20:55:58.135Z,12.50
2019-04-03T20:58:30.303Z,7.35
2019-04-03T21:01:06.856Z,11.38
2019-04-03T21:03:36.091Z,13.50
2019-04-03T21:06:07.524Z,16.73
2019-04-03T21:08:39.334Z,13.10
2019-04-03T21:11:11.790Z,13.68
2019-04-03T21:13:43.303Z,8.53
2019-04-03T21:16:16.654Z,15.93
2019-04-03T21:18:51.150Z,11.90
2019-04-03T21:21:21.594Z,15.03
2019-04-03T21:23:52.978Z,13.32
2019-04-03T21:26:24.396Z,15.72
2019-04-03T21:28:56.106Z,16.37
2019-04-03T21:31:27.800Z,11.43
2019-04-03T21:34:01.619Z,9.63
2019-04-03T21:36:32.853Z,8.08
2019-04-03T21:39:06.239Z,15.43
2019-04-03T21:41:37.817Z,8.95
2019-04-03T21:44:09.399Z,8.83
2019-04-03T21:46:41.000Z,9.50
2019-04-03T21:49:12.427Z,10.75
2019-04-03T21:51:43.659Z,15.78
2019-04-03T21:54:14.891Z,9.48
2019-04-03T21:56:46.182Z,9.00
2019-04-03T21:59:17.522Z,11.63
2019-04-03T22:01:49.041Z,9.23
2019-04-03T22:04:20.940Z,9.00
2019-04-03T22:06:53.499Z,10.30
2019-04-03T22:09:24.855Z,5.87
2019-04-03T22:11:56.180Z,9.90
2019-04-03T22:14:27.682Z,6.33
2019-04-03T22:17:00.470Z,5.62
2019-04-03T22:19:31.921Z,10.15
2019-04-03T22:22:03.643Z,8.45
2019-04-03T22:24:37.760Z,5.53
2019-04-03T22:27:11.309Z,8.33
2019-04-03T22:29:42.988Z,6.95
2019-04-03T22:32:14.525Z,4.58
2019-04-03T22:34:46.323Z,9.30
2019-04-03T22:37:18.001Z,9.00
2019-04-03T22:39:50.500Z,10.58
2019-04-03T22:42:22.146Z,9.63
2019-04-03T22:44:53.665Z,4.40
2019-04-03T22:47:25.718Z,6.35
2019-04-03T22:49:57.403Z,7.03
2019-04-03T22:52:28.840Z,9.88
2019-04-03T22:55:00.393Z,6.62
2019-04-03T22:57:31.794Z,6.87
2019-04-03T23:00:03.528Z,5.35
2019-04-03T23:02:36.935Z,7.22
2019-04-03T23:05:08.467Z,5.62
2019-04-03T23:07:40.028Z,6.70
2019-04-03T23:10:11.567Z,4.70
2019-04-03T23:12:43.106Z,4.65
2019-04-03T23:15:14.746Z,5.60
2019-04-03T23:17:46.072Z,9.88
2019-04-03T23:20:17.784Z,5.70
2019-04-03T23:22:49.358Z,5.37
2019-04-03T23:25:20.853Z,4.75
2019-04-03T23:27:52.566Z,9.60
2019-04-03T23:30:24.197Z,6.03
2019-04-03T23:32:55.851Z,7.90
2019-04-03T23:35:27.334Z,8.15
2019-04-03T23:37:58.921Z,4.22
2019-04-03T23:40:30.529Z,4.00
2019-04-03T23:43:02.076Z,3.77
2019-04-03T23:45:33.635Z,5.55
2019-04-03T23:48:05.336Z,5.72
2019-04-03T23:50:36.986Z,3.87
2019-04-03T23:53:08.590Z,6.20
2019-04-03T23:55:40.214Z,5.00
2019-04-03T23:58:11.634Z,4.87
